sensor_id;sensor_type;location;lat;lon;timestamp;P1;durP1;ratioP1;P2;durP2;ratioP2
65033;SDS011;51601;51.356;12.458;2023-03-14T00:00:55;7.32;;;1.55;;
65033;SDS011;51601;51.356;12.458;2023-03-14T00:05:20;5.63;;;1.50;;
65033;SDS011;51601;51.356;12.458;2023-03-14T00:09:44;3.33;;;1.20;;
65033;SDS011;51601;51.356;12.458;2023-03-14T00:14:08;4.25;;;1.30;;
65033;SDS011;51601;51.356;12.458;2023-03-14T00:18:34;4.83;;;1.50;;
65033;SDS011;51601;51.356;12.458;2023-03-14T00:22:58;3.88;;;1.50;;
65033;SDS011;51601;51.356;12.458;2023-03-14T00:27:22;3.15;;;1.20;;
65033;SDS011;51601;51.356;12.458;2023-03-14T00:31:46;4.38;;;1.50;;
65033;SDS011;51601;51.356;12.458;2023-03-14T00:36:13;3.33;;;1.23;;
65033;SDS011;51601;51.356;12.458;2023-03-14T00:40:39;3.88;;;1.20;;
65033;SDS011;51601;51.356;12.458;2023-03-14T00:45:05;3.80;;;1.30;;
65033;SDS011;51601;51.356;12.458;2023-03-14T00:49:31;3.27;;;1.30;;
65033;SDS011;51601;51.356;12.458;2023-03-14T00:53:58;4.10;;;1.30;;
65033;SDS011;51601;51.356;12.458;2023-03-14T00:58:23;4.93;;;1.52;;
65033;SDS011;51601;51.356;12.458;2023-03-14T01:02:47;3.50;;;1.50;;
65033;SDS011;51601;51.356;12.458;2023-03-14T01:07:15;3.80;;;1.40;;
65033;SDS011;51601;51.356;12.458;2023-03-14T01:11:40;4.40;;;1.60;;
65033;SDS011;51601;51.356;12.458;2023-03-14T01:16:08;3.20;;;1.20;;
65033;SDS011;51601;51.356;12.458;2023-03-14T01:20:33;5.37;;;1.40;;
65033;SDS011;51601;51.356;12.458;2023-03-14T01:24:59;3.35;;;1.10;;
65033;SDS011;51601;51.356;12.458;2023-03-14T01:29:25;4.78;;;1.23;;
65033;SDS011;51601;51.356;12.458;2023-03-14T01:33:49;4.43;;;1.40;;
65033;SDS011;51601;51.356;12.458;2023-03-14T01:38:14;3.25;;;1.20;;
65033;SDS011;51601;51.356;12.458;2023-03-14T01:42:44;4.13;;;1.40;;
65033;SDS011;51601;51.356;12.458;2023-03-14T01:47:10;4.63;;;1.60;;
65033;SDS011;51601;51.356;12.458;2023-03-14T01:51:36;3.35;;;1.20;;
65033;SDS011;51601;51.356;12.458;2023-03-14T01:56:04;3.38;;;1.30;;
65033;SDS011;51601;51.356;12.458;2023-03-14T02:00:31;3.72;;;1.20;;
65033;SDS011;51601;51.356;12.458;2023-03-14T02:04:57;3.13;;;1.00;;
65033;SDS011;51601;51.356;12.458;2023-03-14T02:09:27;2.28;;;1.00;;
65033;SDS011;51601;51.356;12.458;2023-03-14T02:13:54;3.80;;;1.17;;
65033;SDS011;51601;51.356;12.458;2023-03-14T02:18:31;3.63;;;1.10;;
65033;SDS011;51601;51.356;12.458;2023-03-14T02:23:10;3.78;;;1.20;;
65033;SDS011;51601;51.356;12.458;2023-03-14T02:27:36;2.58;;;1.08;;
65033;SDS011;51601;51.356;12.458;2023-03-14T02:32:00;3.57;;;1.20;;
65033;SDS011;51601;51.356;12.458;2023-03-14T02:36:25;3.35;;;1.33;;
65033;SDS011;51601;51.356;12.458;2023-03-14T02:40:51;2.47;;;1.00;;
65033;SDS011;51601;51.356;12.458;2023-03-14T02:45:32;2.83;;;1.05;;
65033;SDS011;51601;51.356;12.458;2023-03-14T02:50:04;2.37;;;0.90;;
65033;SDS011;51601;51.356;12.458;2023-03-14T02:54:31;3.03;;;0.90;;
65033;SDS011;51601;51.356;12.458;2023-03-14T02:58:55;2.65;;;1.08;;
65033;SDS011;51601;51.356;12.458;2023-03-14T03:03:59;3.03;;;1.20;;
65033;SDS011;51601;51.356;12.458;2023-03-14T03:08:25;3.45;;;1.20;;
65033;SDS011;51601;51.356;12.458;2023-03-14T03:12:51;4.60;;;1.23;;
65033;SDS011;51601;51.356;12.458;2023-03-14T03:17:18;2.80;;;1.20;;
65033;SDS011;51601;51.356;12.458;2023-03-14T03:21:44;1.60;;;0.70;;
65033;SDS011;51601;51.356;12.458;2023-03-14T03:26:09;4.30;;;1.40;;
65033;SDS011;51601;51.356;12.458;2023-03-14T03:30:34;3.47;;;1.27;;
65033;SDS011;51601;51.356;12.458;2023-03-14T03:35:01;3.50;;;1.00;;
65033;SDS011;51601;51.356;12.458;2023-03-14T03:39:30;4.80;;;1.02;;
65033;SDS011;51601;51.356;12.458;2023-03-14T03:43:54;2.35;;;0.93;;
65033;SDS011;51601;51.356;12.458;2023-03-14T03:48:18;3.23;;;1.17;;
65033;SDS011;51601;51.356;12.458;2023-03-14T03:52:42;4.57;;;1.33;;
65033;SDS011;51601;51.356;12.458;2023-03-14T03:57:08;3.03;;;1.08;;
65033;SDS011;51601;51.356;12.458;2023-03-14T04:01:32;3.60;;;1.13;;
65033;SDS011;51601;51.356;12.458;2023-03-14T04:05:59;4.88;;;0.95;;
65033;SDS011;51601;51.356;12.458;2023-03-14T04:10:25;4.95;;;1.30;;
65033;SDS011;51601;51.356;12.458;2023-03-14T04:15:14;3.95;;;1.25;;
65033;SDS011;51601;51.356;12.458;2023-03-14T04:19:42;4.10;;;1.30;;
65033;SDS011;51601;51.356;12.458;2023-03-14T04:24:03;4.63;;;1.30;;
65033;SDS011;51601;51.356;12.458;2023-03-14T04:28:30;4.18;;;1.25;;
65033;SDS011;51601;51.356;12.458;2023-03-14T04:32:55;4.57;;;1.00;;
65033;SDS011;51601;51.356;12.458;2023-03-14T04:37:21;3.78;;;1.20;;
65033;SDS011;51601;51.356;12.458;2023-03-14T04:41:45;3.92;;;1.15;;
65033;SDS011;51601;51.356;12.458;2023-03-14T04:46:09;4.80;;;1.57;;
65033;SDS011;51601;51.356;12.458;2023-03-14T04:50:35;4.35;;;1.20;;
65033;SDS011;51601;51.356;12.458;2023-03-14T04:54:55;4.10;;;1.13;;
65033;SDS011;51601;51.356;12.458;2023-03-14T04:59:21;4.45;;;1.50;;
65033;SDS011;51601;51.356;12.458;2023-03-14T05:03:47;4.23;;;1.43;;
65033;SDS011;51601;51.356;12.458;2023-03-14T05:08:31;5.25;;;1.40;;
65033;SDS011;51601;51.356;12.458;2023-03-14T05:13:07;4.90;;;1.25;;
65033;SDS011;51601;51.356;12.458;2023-03-14T05:17:46;2.93;;;1.30;;
65033;SDS011;51601;51.356;12.458;2023-03-14T05:22:29;3.30;;;1.30;;
65033;SDS011;51601;51.356;12.458;2023-03-14T05:27:14;4.50;;;1.30;;
65033;SDS011;51601;51.356;12.458;2023-03-14T05:31:55;5.43;;;1.30;;
65033;SDS011;51601;51.356;12.458;2023-03-14T05:36:37;5.85;;;1.33;;
65033;SDS011;51601;51.356;12.458;2023-03-14T05:41:31;5.70;;;1.75;;
65033;SDS011;51601;51.356;12.458;2023-03-14T05:46:19;6.65;;;1.55;;
65033;SDS011;51601;51.356;12.458;2023-03-14T05:50:54;7.10;;;1.60;;
65033;SDS011;51601;51.356;12.458;2023-03-14T05:55:38;7.80;;;1.60;;
65033;SDS011;51601;51.356;12.458;2023-03-14T06:00:25;5.95;;;1.63;;
65033;SDS011;51601;51.356;12.458;2023-03-14T06:05:11;5.47;;;1.17;;
65033;SDS011;51601;51.356;12.458;2023-03-14T06:09:35;6.50;;;1.60;;
65033;SDS011;51601;51.356;12.458;2023-03-14T06:14:00;3.97;;;1.40;;
65033;SDS011;51601;51.356;12.458;2023-03-14T06:18:24;5.80;;;1.83;;
65033;SDS011;51601;51.356;12.458;2023-03-14T06:22:50;5.18;;;1.30;;
65033;SDS011;51601;51.356;12.458;2023-03-14T06:27:14;6.20;;;1.38;;
65033;SDS011;51601;51.356;12.458;2023-03-14T06:31:38;7.70;;;1.60;;
65033;SDS011;51601;51.356;12.458;2023-03-14T06:36:04;6.50;;;1.40;;
65033;SDS011;51601;51.356;12.458;2023-03-14T06:40:31;7.32;;;1.70;;
65033;SDS011;51601;51.356;12.458;2023-03-14T06:45:01;4.93;;;1.60;;
65033;SDS011;51601;51.356;12.458;2023-03-14T06:49:26;5.10;;;1.47;;
65033;SDS011;51601;51.356;12.458;2023-03-14T06:53:52;5.72;;;1.50;;
65033;SDS011;51601;51.356;12.458;2023-03-14T06:58:21;5.97;;;1.27;;
65033;SDS011;51601;51.356;12.458;2023-03-14T07:02:45;5.03;;;1.37;;
65033;SDS011;51601;51.356;12.458;2023-03-14T07:07:12;4.65;;;1.50;;
65033;SDS011;51601;51.356;12.458;2023-03-14T07:11:36;4.95;;;1.48;;
65033;SDS011;51601;51.356;12.458;2023-03-14T07:16:03;5.13;;;1.33;;
65033;SDS011;51601;51.356;12.458;2023-03-14T07:20:28;3.43;;;1.27;;
65033;SDS011;51601;51.356;12.458;2023-03-14T07:24:55;4.65;;;1.60;;
65033;SDS011;51601;51.356;12.458;2023-03-14T07:29:20;7.43;;;1.50;;
65033;SDS011;51601;51.356;12.458;2023-03-14T07:33:47;6.17;;;1.60;;
65033;SDS011;51601;51.356;12.458;2023-03-14T07:38:13;5.68;;;1.30;;
65033;SDS011;51601;51.356;12.458;2023-03-14T07:42:57;6.53;;;1.50;;
65033;SDS011;51601;51.356;12.458;2023-03-14T07:47:30;5.77;;;1.60;;
65033;SDS011;51601;51.356;12.458;2023-03-14T07:51:56;6.38;;;1.60;;
65033;SDS011;51601;51.356;12.458;2023-03-14T07:56:21;5.50;;;1.60;;
65033;SDS011;51601;51.356;12.458;2023-03-14T08:00:44;5.63;;;1.88;;
65033;SDS011;51601;51.356;12.458;2023-03-14T08:05:09;6.13;;;1.30;;
65033;SDS011;51601;51.356;12.458;2023-03-14T08:09:34;5.90;;;1.30;;
65033;SDS011;51601;51.356;12.458;2023-03-14T08:13:58;6.47;;;1.33;;
65033;SDS011;51601;51.356;12.458;2023-03-14T08:18:22;5.67;;;1.60;;
65033;SDS011;51601;51.356;12.458;2023-03-14T08:22:46;4.40;;;1.27;;
65033;SDS011;51601;51.356;12.458;2023-03-14T08:27:12;4.53;;;1.30;;
65033;SDS011;51601;51.356;12.458;2023-03-14T08:31:37;5.63;;;1.60;;
65033;SDS011;51601;51.356;12.458;2023-03-14T08:36:01;4.13;;;1.30;;
65033;SDS011;51601;51.356;12.458;2023-03-14T08:40:25;6.18;;;1.70;;
65033;SDS011;51601;51.356;12.458;2023-03-14T08:44:51;4.38;;;1.38;;
65033;SDS011;51601;51.356;12.458;2023-03-14T08:49:15;4.13;;;1.20;;
65033;SDS011;51601;51.356;12.458;2023-03-14T08:53:39;4.38;;;1.15;;
65033;SDS011;51601;51.356;12.458;2023-03-14T08:58:03;8.82;;;1.70;;
65033;SDS011;51601;51.356;12.458;2023-03-14T09:02:28;5.17;;;1.40;;
65033;SDS011;51601;51.356;12.458;2023-03-14T09:06:52;5.78;;;1.30;;
65033;SDS011;51601;51.356;12.458;2023-03-14T09:11:16;3.70;;;1.30;;
65033;SDS011;51601;51.356;12.458;2023-03-14T09:15:40;4.37;;;1.20;;
65033;SDS011;51601;51.356;12.458;2023-03-14T09:20:07;4.53;;;1.70;;
65033;SDS011;51601;51.356;12.458;2023-03-14T09:24:32;33.25;;;8.90;;
65033;SDS011;51601;51.356;12.458;2023-03-14T09:28:56;6.50;;;1.92;;
65033;SDS011;51601;51.356;12.458;2023-03-14T09:33:20;6.90;;;1.73;;
65033;SDS011;51601;51.356;12.458;2023-03-14T09:37:45;5.68;;;1.42;;
65033;SDS011;51601;51.356;12.458;2023-03-14T09:42:13;4.40;;;1.27;;
65033;SDS011;51601;51.356;12.458;2023-03-14T09:46:41;5.67;;;1.10;;
65033;SDS011;51601;51.356;12.458;2023-03-14T09:51:11;3.47;;;1.20;;
65033;SDS011;51601;51.356;12.458;2023-03-14T09:55:38;3.50;;;1.02;;
65033;SDS011;51601;51.356;12.458;2023-03-14T10:00:05;3.43;;;1.10;;
65033;SDS011;51601;51.356;12.458;2023-03-14T10:04:36;3.92;;;1.35;;
65033;SDS011;51601;51.356;12.458;2023-03-14T10:09:03;4.70;;;1.40;;
65033;SDS011;51601;51.356;12.458;2023-03-14T10:13:29;4.07;;;1.20;;
65033;SDS011;51601;51.356;12.458;2023-03-14T10:17:53;4.37;;;1.00;;
65033;SDS011;51601;51.356;12.458;2023-03-14T10:22:17;4.85;;;1.13;;
65033;SDS011;51601;51.356;12.458;2023-03-14T10:26:42;3.67;;;1.25;;
65033;SDS011;51601;51.356;12.458;2023-03-14T10:31:08;2.63;;;1.13;;
65033;SDS011;51601;51.356;12.458;2023-03-14T10:35:32;4.50;;;1.35;;
65033;SDS011;51601;51.356;12.458;2023-03-14T10:39:58;2.92;;;0.90;;
65033;SDS011;51601;51.356;12.458;2023-03-14T10:44:27;5.23;;;1.30;;
65033;SDS011;51601;51.356;12.458;2023-03-14T10:48:55;1.60;;;0.80;;
65033;SDS011;51601;51.356;12.458;2023-03-14T10:53:19;2.88;;;1.15;;
65033;SDS011;51601;51.356;12.458;2023-03-14T10:57:43;2.65;;;1.00;;
65033;SDS011;51601;51.356;12.458;2023-03-14T11:02:10;5.30;;;1.00;;
65033;SDS011;51601;51.356;12.458;2023-03-14T11:06:52;3.47;;;1.30;;
65033;SDS011;51601;51.356;12.458;2023-03-14T11:11:22;3.20;;;1.00;;
65033;SDS011;51601;51.356;12.458;2023-03-14T11:15:53;2.27;;;1.00;;
65033;SDS011;51601;51.356;12.458;2023-03-14T11:20:27;2.67;;;1.00;;
65033;SDS011;51601;51.356;12.458;2023-03-14T11:25:06;3.70;;;1.20;;
65033;SDS011;51601;51.356;12.458;2023-03-14T11:29:39;2.57;;;1.10;;
65033;SDS011;51601;51.356;12.458;2023-03-14T11:34:05;3.38;;;1.15;;
65033;SDS011;51601;51.356;12.458;2023-03-14T11:38:38;4.00;;;1.08;;
65033;SDS011;51601;51.356;12.458;2023-03-14T11:43:11;3.88;;;1.10;;
65033;SDS011;51601;51.356;12.458;2023-03-14T11:47:42;2.63;;;0.90;;
65033;SDS011;51601;51.356;12.458;2023-03-14T11:52:09;3.38;;;1.00;;
65033;SDS011;51601;51.356;12.458;2023-03-14T11:56:37;2.45;;;0.82;;
65033;SDS011;51601;51.356;12.458;2023-03-14T12:01:09;3.00;;;1.00;;
65033;SDS011;51601;51.356;12.458;2023-03-14T12:05:50;3.33;;;1.00;;
65033;SDS011;51601;51.356;12.458;2023-03-14T12:10:25;3.05;;;1.10;;
65033;SDS011;51601;51.356;12.458;2023-03-14T12:14:54;4.07;;;1.13;;
65033;SDS011;51601;51.356;12.458;2023-03-14T12:19:32;2.92;;;1.15;;
65033;SDS011;51601;51.356;12.458;2023-03-14T12:23:58;3.20;;;1.10;;
65033;SDS011;51601;51.356;12.458;2023-03-14T12:28:22;2.92;;;1.02;;
65033;SDS011;51601;51.356;12.458;2023-03-14T12:33:19;2.87;;;0.90;;
65033;SDS011;51601;51.356;12.458;2023-03-14T12:37:47;1.67;;;0.80;;
65033;SDS011;51601;51.356;12.458;2023-03-14T12:42:15;3.30;;;1.10;;
65033;SDS011;51601;51.356;12.458;2023-03-14T12:46:56;3.10;;;1.17;;
65033;SDS011;51601;51.356;12.458;2023-03-14T12:51:21;1.75;;;0.70;;
65033;SDS011;51601;51.356;12.458;2023-03-14T12:55:56;2.20;;;1.00;;
65033;SDS011;51601;51.356;12.458;2023-03-14T13:00:30;4.30;;;1.20;;
65033;SDS011;51601;51.356;12.458;2023-03-14T13:05:00;3.88;;;1.10;;
65033;SDS011;51601;51.356;12.458;2023-03-14T13:09:49;2.78;;;1.02;;
65033;SDS011;51601;51.356;12.458;2023-03-14T13:14:18;2.65;;;1.00;;
65033;SDS011;51601;51.356;12.458;2023-03-14T13:18:43;3.63;;;1.00;;
65033;SDS011;51601;51.356;12.458;2023-03-14T13:23:19;2.92;;;1.02;;
65033;SDS011;51601;51.356;12.458;2023-03-14T13:27:44;2.13;;;0.90;;
65033;SDS011;51601;51.356;12.458;2023-03-14T13:32:16;2.43;;;1.10;;
65033;SDS011;51601;51.356;12.458;2023-03-14T13:36:45;2.88;;;0.80;;
65033;SDS011;51601;51.356;12.458;2023-03-14T13:41:11;3.15;;;1.25;;
65033;SDS011;51601;51.356;12.458;2023-03-14T13:45:41;2.53;;;1.00;;
65033;SDS011;51601;51.356;12.458;2023-03-14T13:50:15;3.67;;;1.10;;
65033;SDS011;51601;51.356;12.458;2023-03-14T13:54:40;2.35;;;0.98;;
65033;SDS011;51601;51.356;12.458;2023-03-14T13:59:04;3.78;;;0.90;;
65033;SDS011;51601;51.356;12.458;2023-03-14T14:03:44;2.20;;;0.87;;
65033;SDS011;51601;51.356;12.458;2023-03-14T14:08:14;2.65;;;1.00;;
65033;SDS011;51601;51.356;12.458;2023-03-14T14:12:39;2.38;;;0.90;;
65033;SDS011;51601;51.356;12.458;2023-03-14T14:17:08;2.83;;;0.93;;
65033;SDS011;51601;51.356;12.458;2023-03-14T14:21:35;3.00;;;0.90;;
65033;SDS011;51601;51.356;12.458;2023-03-14T14:26:01;2.30;;;0.90;;
65033;SDS011;51601;51.356;12.458;2023-03-14T14:30:32;1.90;;;0.90;;
65033;SDS011;51601;51.356;12.458;2023-03-14T14:34:57;1.75;;;0.80;;
65033;SDS011;51601;51.356;12.458;2023-03-14T14:39:23;2.70;;;1.10;;
65033;SDS011;51601;51.356;12.458;2023-03-14T14:43:52;2.15;;;0.90;;
65033;SDS011;51601;51.356;12.458;2023-03-14T14:48:18;2.80;;;1.13;;
65033;SDS011;51601;51.356;12.458;2023-03-14T14:52:44;2.15;;;0.95;;
65033;SDS011;51601;51.356;12.458;2023-03-14T14:57:15;5.10;;;1.20;;
65033;SDS011;51601;51.356;12.458;2023-03-14T15:01:43;3.80;;;1.30;;
65033;SDS011;51601;51.356;12.458;2023-03-14T15:06:10;4.25;;;1.20;;
65033;SDS011;51601;51.356;12.458;2023-03-14T15:10:35;4.30;;;1.40;;
65033;SDS011;51601;51.356;12.458;2023-03-14T15:14:59;2.87;;;1.20;;
65033;SDS011;51601;51.356;12.458;2023-03-14T15:19:26;2.47;;;1.10;;
65033;SDS011;51601;51.356;12.458;2023-03-14T15:23:52;4.38;;;1.42;;
65033;SDS011;51601;51.356;12.458;2023-03-14T15:28:17;5.05;;;1.40;;
65033;SDS011;51601;51.356;12.458;2023-03-14T15:32:43;2.57;;;1.13;;
65033;SDS011;51601;51.356;12.458;2023-03-14T15:37:10;3.53;;;0.90;;
65033;SDS011;51601;51.356;12.458;2023-03-14T15:41:34;2.25;;;1.00;;
65033;SDS011;51601;51.356;12.458;2023-03-14T15:45:59;2.03;;;1.07;;
65033;SDS011;51601;51.356;12.458;2023-03-14T15:50:23;1.63;;;0.80;;
65033;SDS011;51601;51.356;12.458;2023-03-14T15:54:49;1.95;;;0.80;;
65033;SDS011;51601;51.356;12.458;2023-03-14T15:59:13;1.80;;;0.87;;
65033;SDS011;51601;51.356;12.458;2023-03-14T16:03:36;3.13;;;1.17;;
65033;SDS011;51601;51.356;12.458;2023-03-14T16:08:00;2.10;;;0.95;;
65033;SDS011;51601;51.356;12.458;2023-03-14T16:12:27;3.42;;;1.20;;
65033;SDS011;51601;51.356;12.458;2023-03-14T16:16:53;2.30;;;0.90;;
65033;SDS011;51601;51.356;12.458;2023-03-14T16:21:21;1.60;;;0.75;;
65033;SDS011;51601;51.356;12.458;2023-03-14T16:25:45;1.98;;;0.90;;
65033;SDS011;51601;51.356;12.458;2023-03-14T16:30:11;3.23;;;1.10;;
65033;SDS011;51601;51.356;12.458;2023-03-14T16:34:37;1.83;;;0.90;;
65033;SDS011;51601;51.356;12.458;2023-03-14T16:39:02;2.63;;;0.90;;
65033;SDS011;51601;51.356;12.458;2023-03-14T16:43:26;3.33;;;1.20;;
65033;SDS011;51601;51.356;12.458;2023-03-14T16:47:51;5.88;;;1.45;;
65033;SDS011;51601;51.356;12.458;2023-03-14T16:52:15;4.13;;;1.45;;
65033;SDS011;51601;51.356;12.458;2023-03-14T16:56:39;3.85;;;1.40;;
65033;SDS011;51601;51.356;12.458;2023-03-14T17:01:03;4.80;;;1.47;;
65033;SDS011;51601;51.356;12.458;2023-03-14T17:05:33;5.38;;;1.60;;
65033;SDS011;51601;51.356;12.458;2023-03-14T17:09:57;7.05;;;1.83;;
65033;SDS011;51601;51.356;12.458;2023-03-14T17:14:21;6.63;;;1.57;;
65033;SDS011;51601;51.356;12.458;2023-03-14T17:18:45;6.95;;;1.70;;
65033;SDS011;51601;51.356;12.458;2023-03-14T17:23:10;6.13;;;1.98;;
65033;SDS011;51601;51.356;12.458;2023-03-14T17:27:34;7.37;;;1.60;;
65033;SDS011;51601;51.356;12.458;2023-03-14T17:31:58;9.77;;;1.98;;
65033;SDS011;51601;51.356;12.458;2023-03-14T17:36:22;10.18;;;2.15;;
65033;SDS011;51601;51.356;12.458;2023-03-14T17:40:52;11.57;;;2.22;;
65033;SDS011;51601;51.356;12.458;2023-03-14T17:45:16;9.13;;;1.90;;
65033;SDS011;51601;51.356;12.458;2023-03-14T17:49:41;9.30;;;2.35;;
65033;SDS011;51601;51.356;12.458;2023-03-14T17:54:07;7.18;;;1.92;;
65033;SDS011;51601;51.356;12.458;2023-03-14T17:58:32;6.33;;;2.13;;
65033;SDS011;51601;51.356;12.458;2023-03-14T18:02:58;6.78;;;1.90;;
65033;SDS011;51601;51.356;12.458;2023-03-14T18:07:22;9.20;;;1.92;;
65033;SDS011;51601;51.356;12.458;2023-03-14T18:11:46;7.07;;;1.43;;
65033;SDS011;51601;51.356;12.458;2023-03-14T18:16:24;10.18;;;1.83;;
65033;SDS011;51601;51.356;12.458;2023-03-14T18:20:48;9.82;;;1.45;;
65033;SDS011;51601;51.356;12.458;2023-03-14T18:25:13;9.20;;;1.60;;
65033;SDS011;51601;51.356;12.458;2023-03-14T18:29:37;7.70;;;1.60;;
65033;SDS011;51601;51.356;12.458;2023-03-14T18:34:02;8.60;;;1.80;;
65033;SDS011;51601;51.356;12.458;2023-03-14T18:38:26;9.00;;;1.83;;
65033;SDS011;51601;51.356;12.458;2023-03-14T18:42:50;11.53;;;1.80;;
65033;SDS011;51601;51.356;12.458;2023-03-14T18:47:14;10.93;;;1.60;;
65033;SDS011;51601;51.356;12.458;2023-03-14T18:51:40;8.77;;;1.58;;
65033;SDS011;51601;51.356;12.458;2023-03-14T18:56:05;10.83;;;2.07;;
65033;SDS011;51601;51.356;12.458;2023-03-14T19:00:29;11.05;;;2.15;;
65033;SDS011;51601;51.356;12.458;2023-03-14T19:04:53;8.40;;;2.10;;
65033;SDS011;51601;51.356;12.458;2023-03-14T19:09:19;11.20;;;2.05;;
65033;SDS011;51601;51.356;12.458;2023-03-14T19:13:44;9.37;;;1.70;;
65033;SDS011;51601;51.356;12.458;2023-03-14T19:18:08;11.35;;;1.80;;
65033;SDS011;51601;51.356;12.458;2023-03-14T19:22:32;10.50;;;1.70;;
65033;SDS011;51601;51.356;12.458;2023-03-14T19:26:57;9.43;;;2.00;;
65033;SDS011;51601;51.356;12.458;2023-03-14T19:31:21;16.27;;;2.17;;
65033;SDS011;51601;51.356;12.458;2023-03-14T19:35:46;11.45;;;1.90;;
65033;SDS011;51601;51.356;12.458;2023-03-14T19:40:10;10.70;;;2.17;;
65033;SDS011;51601;51.356;12.458;2023-03-14T19:44:37;11.85;;;2.30;;
65033;SDS011;51601;51.356;12.458;2023-03-14T19:49:01;9.85;;;2.35;;
65033;SDS011;51601;51.356;12.458;2023-03-14T19:53:26;13.27;;;2.10;;
65033;SDS011;51601;51.356;12.458;2023-03-14T19:57:50;10.93;;;2.73;;
65033;SDS011;51601;51.356;12.458;2023-03-14T20:02:17;11.85;;;2.17;;
65033;SDS011;51601;51.356;12.458;2023-03-14T20:06:41;9.70;;;2.00;;
65033;SDS011;51601;51.356;12.458;2023-03-14T20:11:06;13.07;;;2.10;;
65033;SDS011;51601;51.356;12.458;2023-03-14T20:15:30;8.10;;;2.03;;
65033;SDS011;51601;51.356;12.458;2023-03-14T20:19:56;9.88;;;1.90;;
65033;SDS011;51601;51.356;12.458;2023-03-14T20:24:20;10.43;;;1.80;;
65033;SDS011;51601;51.356;12.458;2023-03-14T20:28:44;11.45;;;1.95;;
65033;SDS011;51601;51.356;12.458;2023-03-14T20:33:09;7.30;;;1.90;;
65033;SDS011;51601;51.356;12.458;2023-03-14T20:37:35;6.10;;;1.70;;
65033;SDS011;51601;51.356;12.458;2023-03-14T20:41:59;10.80;;;2.03;;
65033;SDS011;51601;51.356;12.458;2023-03-14T20:46:23;7.72;;;1.90;;
65033;SDS011;51601;51.356;12.458;2023-03-14T20:50:47;8.75;;;1.50;;
65033;SDS011;51601;51.356;12.458;2023-03-14T20:55:13;12.47;;;1.97;;
65033;SDS011;51601;51.356;12.458;2023-03-14T20:59:37;10.80;;;2.20;;
65033;SDS011;51601;51.356;12.458;2023-03-14T21:04:00;8.23;;;1.90;;
65033;SDS011;51601;51.356;12.458;2023-03-14T21:08:24;8.73;;;2.10;;
65033;SDS011;51601;51.356;12.458;2023-03-14T21:12:50;9.57;;;2.10;;
65033;SDS011;51601;51.356;12.458;2023-03-14T21:17:14;6.35;;;1.70;;
65033;SDS011;51601;51.356;12.458;2023-03-14T21:21:37;9.68;;;1.88;;
65033;SDS011;51601;51.356;12.458;2023-03-14T21:26:02;7.83;;;1.97;;
65033;SDS011;51601;51.356;12.458;2023-03-14T21:30:28;15.32;;;2.20;;
65033;SDS011;51601;51.356;12.458;2023-03-14T21:34:52;8.15;;;1.70;;
65033;SDS011;51601;51.356;12.458;2023-03-14T21:39:16;11.70;;;2.47;;
65033;SDS011;51601;51.356;12.458;2023-03-14T21:43:40;9.38;;;1.80;;
65033;SDS011;51601;51.356;12.458;2023-03-14T21:48:08;7.43;;;1.45;;
65033;SDS011;51601;51.356;12.458;2023-03-14T21:52:32;10.23;;;2.20;;
65033;SDS011;51601;51.356;12.458;2023-03-14T21:56:56;14.93;;;2.10;;
65033;SDS011;51601;51.356;12.458;2023-03-14T22:01:20;7.15;;;1.77;;
65033;SDS011;51601;51.356;12.458;2023-03-14T22:05:46;10.63;;;1.70;;
65033;SDS011;51601;51.356;12.458;2023-03-14T22:10:10;5.20;;;1.47;;
65033;SDS011;51601;51.356;12.458;2023-03-14T22:14:35;9.23;;;1.80;;
65033;SDS011;51601;51.356;12.458;2023-03-14T22:19:00;9.57;;;1.75;;
65033;SDS011;51601;51.356;12.458;2023-03-14T22:23:25;11.23;;;1.80;;
65033;SDS011;51601;51.356;12.458;2023-03-14T22:27:49;11.20;;;1.80;;
65033;SDS011;51601;51.356;12.458;2023-03-14T22:32:13;8.30;;;2.17;;
65033;SDS011;51601;51.356;12.458;2023-03-14T22:36:37;8.70;;;1.70;;
65033;SDS011;51601;51.356;12.458;2023-03-14T22:41:02;7.72;;;1.58;;
65033;SDS011;51601;51.356;12.458;2023-03-14T22:45:26;12.82;;;2.10;;
65033;SDS011;51601;51.356;12.458;2023-03-14T22:49:50;13.48;;;2.05;;
65033;SDS011;51601;51.356;12.458;2023-03-14T22:54:14;7.83;;;1.60;;
65033;SDS011;51601;51.356;12.458;2023-03-14T22:58:39;7.40;;;1.73;;
65033;SDS011;51601;51.356;12.458;2023-03-14T23:03:03;8.35;;;1.60;;
65033;SDS011;51601;51.356;12.458;2023-03-14T23:07:27;7.93;;;1.63;;
65033;SDS011;51601;51.356;12.458;2023-03-14T23:11:51;10.23;;;2.00;;
65033;SDS011;51601;51.356;12.458;2023-03-14T23:16:17;7.20;;;1.48;;
65033;SDS011;51601;51.356;12.458;2023-03-14T23:20:48;12.17;;;1.70;;
65033;SDS011;51601;51.356;12.458;2023-03-14T23:25:12;9.48;;;1.70;;
65033;SDS011;51601;51.356;12.458;2023-03-14T23:29:36;7.15;;;1.70;;
65033;SDS011;51601;51.356;12.458;2023-03-14T23:34:01;9.07;;;1.70;;
65033;SDS011;51601;51.356;12.458;2023-03-14T23:38:25;8.40;;;1.70;;
65033;SDS011;51601;51.356;12.458;2023-03-14T23:42:50;7.13;;;1.73;;
65033;SDS011;51601;51.356;12.458;2023-03-14T23:47:14;9.85;;;1.92;;
65033;SDS011;51601;51.356;12.458;2023-03-14T23:51:39;10.10;;;2.00;;
65033;SDS011;51601;51.356;12.458;2023-03-14T23:56:04;9.20;;;1.83;;
